sensor_id;sensor_type;location;lat;lon;timestamp;pressure;altitude;pressure_sealevel;temperature;humidity
14253;BME280;7210;51.502;10.722;2023-03-14T00:00:15;97256.03;;;9.35;100.00
14253;BME280;7210;51.502;10.722;2023-03-14T00:02:42;97239.56;;;9.48;100.00
14253;BME280;7210;51.502;10.722;2023-03-14T00:05:10;97217.34;;;9.54;100.00
14253;BME280;7210;51.502;10.722;2023-03-14T00:07:39;97209.50;;;9.49;100.00
14253;BME280;7210;51.502;10.722;2023-03-14T00:10:10;97198.72;;;9.46;100.00
14253;BME280;7210;51.502;10.722;2023-03-14T00:12:38;97186.81;;;9.48;100.00
14253;BME280;7210;51.502;10.722;2023-03-14T00:15:09;97180.53;;;9.44;100.00
14253;BME280;7210;51.502;10.722;2023-03-14T00:17:38;97200.00;;;9.48;100.00
14253;BME280;7210;51.502;10.722;2023-03-14T00:20:07;97203.78;;;9.42;100.00
14253;BME280;7210;51.502;10.722;2023-03-14T00:22:37;97202.75;;;9.38;100.00
14253;BME280;7210;51.502;10.722;2023-03-14T00:25:08;97192.28;;;9.28;100.00
14253;BME280;7210;51.502;10.722;2023-03-14T00:27:36;97196.06;;;9.17;100.00
14253;BME280;7210;51.502;10.722;2023-03-14T00:30:08;97219.09;;;9.07;100.00
14253;BME280;7210;51.502;10.722;2023-03-14T00:32:35;97222.53;;;9.02;100.00
14253;BME280;7210;51.502;10.722;2023-03-14T00:35:04;97226.03;;;8.93;100.00
14253;BME280;7210;51.502;10.722;2023-03-14T00:37:31;97241.84;;;8.93;100.00
14253;BME280;7210;51.502;10.722;2023-03-14T00:39:58;97275.13;;;9.17;100.00
14253;BME280;7210;51.502;10.722;2023-03-14T00:42:25;97287.72;;;9.59;100.00
14253;BME280;7210;51.502;10.722;2023-03-14T00:44:53;97291.56;;;9.71;100.00
14253;BME280;7210;51.502;10.722;2023-03-14T00:47:21;97280.50;;;9.74;100.00
14253;BME280;7210;51.502;10.722;2023-03-14T00:49:48;97282.94;;;9.66;100.00
14253;BME280;7210;51.502;10.722;2023-03-14T00:52:15;97301.63;;;9.69;100.00
14253;BME280;7210;51.502;10.722;2023-03-14T00:54:43;97314.22;;;9.77;100.00
14253;BME280;7210;51.502;10.722;2023-03-14T00:57:10;97317.09;;;9.81;100.00
14253;BME280;7210;51.502;10.722;2023-03-14T00:59:37;97308.69;;;9.79;100.00
14253;BME280;7210;51.502;10.722;2023-03-14T01:02:04;97321.59;;;9.80;100.00
14253;BME280;7210;51.502;10.722;2023-03-14T01:04:33;97332.66;;;9.82;100.00
14253;BME280;7210;51.502;10.722;2023-03-14T01:07:00;97326.88;;;9.80;100.00
14253;BME280;7210;51.502;10.722;2023-03-14T01:09:27;97330.53;;;9.84;100.00
14253;BME280;7210;51.502;10.722;2023-03-14T01:11:54;97330.25;;;9.86;100.00
14253;BME280;7210;51.502;10.722;2023-03-14T01:14:23;97321.53;;;9.85;100.00
14253;BME280;7210;51.502;10.722;2023-03-14T01:16:50;97326.22;;;9.93;100.00
14253;BME280;7210;51.502;10.722;2023-03-14T01:19:17;97325.38;;;9.98;100.00
14253;BME280;7210;51.502;10.722;2023-03-14T01:21:45;97317.19;;;9.99;100.00
14253;BME280;7210;51.502;10.722;2023-03-14T01:24:13;97314.81;;;10.03;100.00
14253;BME280;7210;51.502;10.722;2023-03-14T01:26:40;97307.66;;;10.03;100.00
14253;BME280;7210;51.502;10.722;2023-03-14T01:29:08;97319.25;;;10.07;100.00
14253;BME280;7210;51.502;10.722;2023-03-14T01:31:38;97313.38;;;10.15;100.00
14253;BME280;7210;51.502;10.722;2023-03-14T01:34:05;97296.97;;;10.18;100.00
14253;BME280;7210;51.502;10.722;2023-03-14T01:36:33;97294.00;;;10.25;100.00
14253;BME280;7210;51.502;10.722;2023-03-14T01:39:03;97276.38;;;10.20;100.00
14253;BME280;7210;51.502;10.722;2023-03-14T01:41:32;97271.09;;;10.20;100.00
14253;BME280;7210;51.502;10.722;2023-03-14T01:44:00;97258.94;;;10.19;100.00
14253;BME280;7210;51.502;10.722;2023-03-14T01:46:46;97251.09;;;10.14;100.00
14253;BME280;7210;51.502;10.722;2023-03-14T01:49:22;97245.34;;;10.02;100.00
14253;BME280;7210;51.502;10.722;2023-03-14T01:52:03;97234.41;;;9.90;100.00
14253;BME280;7210;51.502;10.722;2023-03-14T01:54:38;97233.47;;;9.81;100.00
14253;BME280;7210;51.502;10.722;2023-03-14T01:57:12;97224.78;;;9.76;100.00
14253;BME280;7210;51.502;10.722;2023-03-14T01:59:47;97228.59;;;9.65;100.00
14253;BME280;7210;51.502;10.722;2023-03-14T02:02:16;97229.25;;;9.52;100.00
14253;BME280;7210;51.502;10.722;2023-03-14T02:04:44;97225.97;;;9.36;100.00
14253;BME280;7210;51.502;10.722;2023-03-14T02:07:18;97227.63;;;9.27;100.00
14253;BME280;7210;51.502;10.722;2023-03-14T02:10:10;97236.59;;;9.26;100.00
14253;BME280;7210;51.502;10.722;2023-03-14T02:12:39;97225.06;;;9.17;100.00
14253;BME280;7210;51.502;10.722;2023-03-14T02:15:30;97239.59;;;9.15;100.00
14253;BME280;7210;51.502;10.722;2023-03-14T02:18:17;97238.78;;;9.14;100.00
14253;BME280;7210;51.502;10.722;2023-03-14T02:21:12;97233.28;;;9.11;100.00
14253;BME280;7210;51.502;10.722;2023-03-14T02:23:50;97238.81;;;9.09;100.00
14253;BME280;7210;51.502;10.722;2023-03-14T02:26:28;97233.59;;;9.04;100.00
14253;BME280;7210;51.502;10.722;2023-03-14T02:28:58;97230.97;;;9.04;100.00
14253;BME280;7210;51.502;10.722;2023-03-14T02:31:25;97217.25;;;9.02;100.00
14253;BME280;7210;51.502;10.722;2023-03-14T02:33:54;97227.78;;;9.02;100.00
14253;BME280;7210;51.502;10.722;2023-03-14T02:36:28;97213.00;;;9.11;100.00
14253;BME280;7210;51.502;10.722;2023-03-14T02:39:09;97209.81;;;9.09;100.00
14253;BME280;7210;51.502;10.722;2023-03-14T02:41:41;97216.16;;;9.08;100.00
14253;BME280;7210;51.502;10.722;2023-03-14T02:44:12;97216.22;;;9.03;100.00
14253;BME280;7210;51.502;10.722;2023-03-14T02:46:44;97241.75;;;9.08;100.00
14253;BME280;7210;51.502;10.722;2023-03-14T02:49:14;97236.50;;;9.03;100.00
14253;BME280;7210;51.502;10.722;2023-03-14T02:51:43;97233.31;;;9.06;100.00
14253;BME280;7210;51.502;10.722;2023-03-14T02:54:12;97238.88;;;9.04;100.00
14253;BME280;7210;51.502;10.722;2023-03-14T02:56:50;97237.31;;;9.03;100.00
14253;BME280;7210;51.502;10.722;2023-03-14T02:59:19;97232.03;;;9.03;100.00
14253;BME280;7210;51.502;10.722;2023-03-14T03:01:55;97225.16;;;9.02;100.00
14253;BME280;7210;51.502;10.722;2023-03-14T03:04:24;97216.75;;;9.00;100.00
14253;BME280;7210;51.502;10.722;2023-03-14T03:10:09;97212.75;;;9.08;100.00
14253;BME280;7210;51.502;10.722;2023-03-14T03:12:37;97209.28;;;9.12;100.00
14253;BME280;7210;51.502;10.722;2023-03-14T03:15:07;97220.56;;;9.23;100.00
14253;BME280;7210;51.502;10.722;2023-03-14T03:21:00;97209.56;;;9.39;100.00
14253;BME280;7210;51.502;10.722;2023-03-14T03:23:28;97213.75;;;9.45;100.00
14253;BME280;7210;51.502;10.722;2023-03-14T03:25:57;97212.19;;;9.44;100.00
14253;BME280;7210;51.502;10.722;2023-03-14T03:28:24;97213.53;;;9.42;100.00
14253;BME280;7210;51.502;10.722;2023-03-14T03:30:54;97209.53;;;9.44;100.00
14253;BME280;7210;51.502;10.722;2023-03-14T03:33:22;97209.94;;;9.56;100.00
14253;BME280;7210;51.502;10.722;2023-03-14T03:35:50;97209.34;;;9.64;100.00
14253;BME280;7210;51.502;10.722;2023-03-14T03:38:29;97209.88;;;9.66;100.00
14253;BME280;7210;51.502;10.722;2023-03-14T03:41:05;97188.69;;;9.71;100.00
14253;BME280;7210;51.502;10.722;2023-03-14T03:43:33;97197.13;;;9.73;100.00
14253;BME280;7210;51.502;10.722;2023-03-14T03:46:05;97193.94;;;9.76;100.00
14253;BME280;7210;51.502;10.722;2023-03-14T03:48:34;97185.97;;;9.81;100.00
14253;BME280;7210;51.502;10.722;2023-03-14T03:51:04;97188.75;;;9.90;100.00
14253;BME280;7210;51.502;10.722;2023-03-14T03:53:33;97175.88;;;9.88;100.00
14253;BME280;7210;51.502;10.722;2023-03-14T03:56:13;97184.50;;;9.94;100.00
14253;BME280;7210;51.502;10.722;2023-03-14T03:58:42;97167.66;;;9.90;100.00
14253;BME280;7210;51.502;10.722;2023-03-14T04:01:11;97163.44;;;9.89;100.00
14253;BME280;7210;51.502;10.722;2023-03-14T04:03:39;97172.47;;;9.83;100.00
14253;BME280;7210;51.502;10.722;2023-03-14T04:06:09;97165.84;;;9.85;100.00
14253;BME280;7210;51.502;10.722;2023-03-14T04:08:38;97177.44;;;9.89;100.00
14253;BME280;7210;51.502;10.722;2023-03-14T04:11:07;97181.63;;;9.90;100.00
14253;BME280;7210;51.502;10.722;2023-03-14T04:13:48;97193.75;;;9.91;100.00
14253;BME280;7210;51.502;10.722;2023-03-14T04:16:20;97180.22;;;9.98;100.00
14253;BME280;7210;51.502;10.722;2023-03-14T04:18:48;97180.44;;;10.01;100.00
14253;BME280;7210;51.502;10.722;2023-03-14T04:21:24;97174.56;;;10.09;100.00
14253;BME280;7210;51.502;10.722;2023-03-14T04:23:55;97181.16;;;10.12;99.60
14253;BME280;7210;51.502;10.722;2023-03-14T04:26:24;97158.69;;;10.14;99.13
14253;BME280;7210;51.502;10.722;2023-03-14T04:28:51;97140.78;;;10.11;98.95
14253;BME280;7210;51.502;10.722;2023-03-14T04:31:22;97131.47;;;10.14;98.77
14253;BME280;7210;51.502;10.722;2023-03-14T04:33:51;97126.44;;;10.17;98.30
14253;BME280;7210;51.502;10.722;2023-03-14T04:36:26;97135.41;;;10.16;97.96
14253;BME280;7210;51.502;10.722;2023-03-14T04:38:54;97133.34;;;10.13;98.08
14253;BME280;7210;51.502;10.722;2023-03-14T04:41:23;97146.56;;;10.13;97.96
14253;BME280;7210;51.502;10.722;2023-03-14T04:43:50;97137.63;;;10.09;97.68
14253;BME280;7210;51.502;10.722;2023-03-14T04:46:17;97161.53;;;10.18;97.64
14253;BME280;7210;51.502;10.722;2023-03-14T04:48:46;97169.25;;;10.14;97.60
14253;BME280;7210;51.502;10.722;2023-03-14T04:51:15;97162.53;;;10.22;97.43
14253;BME280;7210;51.502;10.722;2023-03-14T04:53:42;97164.41;;;10.21;97.24
14253;BME280;7210;51.502;10.722;2023-03-14T04:56:11;97146.69;;;10.22;96.96
14253;BME280;7210;51.502;10.722;2023-03-14T04:58:41;97151.47;;;10.20;96.72
14253;BME280;7210;51.502;10.722;2023-03-14T05:01:10;97142.34;;;10.12;96.59
14253;BME280;7210;51.502;10.722;2023-03-14T05:03:57;97143.41;;;10.11;96.41
14253;BME280;7210;51.502;10.722;2023-03-14T05:06:43;97152.97;;;10.07;96.54
14253;BME280;7210;51.502;10.722;2023-03-14T05:09:41;97144.41;;;10.15;96.04
14253;BME280;7210;51.502;10.722;2023-03-14T05:12:11;97146.81;;;10.12;95.87
14253;BME280;7210;51.502;10.722;2023-03-14T05:14:58;97135.09;;;9.99;95.74
14253;BME280;7210;51.502;10.722;2023-03-14T05:17:44;97127.44;;;9.98;95.59
14253;BME280;7210;51.502;10.722;2023-03-14T05:20:13;97140.41;;;9.94;95.70
14253;BME280;7210;51.502;10.722;2023-03-14T05:23:12;97140.41;;;9.94;95.39
14253;BME280;7210;51.502;10.722;2023-03-14T05:25:59;97141.47;;;9.93;95.05
14253;BME280;7210;51.502;10.722;2023-03-14T05:28:29;97145.91;;;10.03;94.55
14253;BME280;7210;51.502;10.722;2023-03-14T05:31:20;97123.72;;;9.99;94.28
14253;BME280;7210;51.502;10.722;2023-03-14T05:33:57;97120.94;;;9.90;94.11
14253;BME280;7210;51.502;10.722;2023-03-14T05:36:46;97132.13;;;9.82;94.13
14253;BME280;7210;51.502;10.722;2023-03-14T05:39:33;97129.59;;;9.72;94.30
14253;BME280;7210;51.502;10.722;2023-03-14T05:42:30;97147.56;;;9.70;94.68
14253;BME280;7210;51.502;10.722;2023-03-14T05:45:20;97159.91;;;9.75;94.63
14253;BME280;7210;51.502;10.722;2023-03-14T05:48:04;97163.13;;;9.72;94.80
14253;BME280;7210;51.502;10.722;2023-03-14T05:50:34;97181.22;;;9.78;94.98
14253;BME280;7210;51.502;10.722;2023-03-14T05:53:23;97176.13;;;9.87;94.64
14253;BME280;7210;51.502;10.722;2023-03-14T05:56:15;97167.88;;;9.93;94.35
14253;BME280;7210;51.502;10.722;2023-03-14T05:58:54;97159.50;;;9.86;94.43
14253;BME280;7210;51.502;10.722;2023-03-14T06:01:30;97158.56;;;9.77;94.44
14253;BME280;7210;51.502;10.722;2023-03-14T06:04:26;97157.03;;;9.71;94.62
14253;BME280;7210;51.502;10.722;2023-03-14T06:06:58;97169.47;;;9.71;94.67
14253;BME280;7210;51.502;10.722;2023-03-14T06:09:26;97164.19;;;9.71;94.61
14253;BME280;7210;51.502;10.722;2023-03-14T06:11:57;97154.50;;;9.61;94.65
14253;BME280;7210;51.502;10.722;2023-03-14T06:14:24;97162.47;;;9.56;94.56
14253;BME280;7210;51.502;10.722;2023-03-14T06:16:52;97185.72;;;9.54;94.84
14253;BME280;7210;51.502;10.722;2023-03-14T06:19:21;97185.22;;;9.52;94.76
14253;BME280;7210;51.502;10.722;2023-03-14T06:21:49;97202.56;;;9.58;94.77
14253;BME280;7210;51.502;10.722;2023-03-14T06:24:16;97200.75;;;9.54;94.72
14253;BME280;7210;51.502;10.722;2023-03-14T06:26:48;97218.88;;;9.60;94.75
14253;BME280;7210;51.502;10.722;2023-03-14T06:29:15;97238.28;;;9.74;94.43
14253;BME280;7210;51.502;10.722;2023-03-14T06:31:43;97230.53;;;9.83;94.02
14253;BME280;7210;51.502;10.722;2023-03-14T06:34:15;97220.19;;;9.86;93.78
14253;BME280;7210;51.502;10.722;2023-03-14T06:36:43;97217.84;;;9.85;93.57
14253;BME280;7210;51.502;10.722;2023-03-14T06:39:10;97213.34;;;9.85;93.56
14253;BME280;7210;51.502;10.722;2023-03-14T06:41:42;97210.66;;;9.90;93.20
14253;BME280;7210;51.502;10.722;2023-03-14T06:44:11;97200.34;;;9.94;92.70
14253;BME280;7210;51.502;10.722;2023-03-14T06:46:39;97201.34;;;9.98;92.68
14253;BME280;7210;51.502;10.722;2023-03-14T06:49:06;97209.56;;;9.96;92.68
14253;BME280;7210;51.502;10.722;2023-03-14T06:51:33;97203.44;;;10.01;92.49
14253;BME280;7210;51.502;10.722;2023-03-14T06:54:03;97202.84;;;10.09;92.05
14253;BME280;7210;51.502;10.722;2023-03-14T06:56:30;97203.56;;;10.14;91.88
14253;BME280;7210;51.502;10.722;2023-03-14T06:58:58;97201.13;;;10.18;91.66
14253;BME280;7210;51.502;10.722;2023-03-14T07:01:31;97200.56;;;10.21;91.62
14253;BME280;7210;51.502;10.722;2023-03-14T07:04:05;97197.38;;;10.24;91.42
14253;BME280;7210;51.502;10.722;2023-03-14T07:06:35;97210.28;;;10.25;91.31
14253;BME280;7210;51.502;10.722;2023-03-14T07:09:04;97215.50;;;10.30;91.14
14253;BME280;7210;51.502;10.722;2023-03-14T07:11:34;97208.09;;;10.32;90.64
14253;BME280;7210;51.502;10.722;2023-03-14T07:14:04;97200.47;;;10.31;90.87
14253;BME280;7210;51.502;10.722;2023-03-14T07:16:34;97215.50;;;10.30;90.89
14253;BME280;7210;51.502;10.722;2023-03-14T07:19:05;97224.16;;;10.36;90.79
14253;BME280;7210;51.502;10.722;2023-03-14T07:21:34;97228.53;;;10.45;90.40
14253;BME280;7210;51.502;10.722;2023-03-14T07:24:07;97228.97;;;10.52;90.33
14253;BME280;7210;51.502;10.722;2023-03-14T07:26:50;97250.00;;;10.57;90.53
14253;BME280;7210;51.502;10.722;2023-03-14T07:29:17;97253.31;;;10.68;90.21
14253;BME280;7210;51.502;10.722;2023-03-14T07:31:46;97254.56;;;10.75;90.10
14253;BME280;7210;51.502;10.722;2023-03-14T07:34:21;97273.97;;;10.84;90.07
14253;BME280;7210;51.502;10.722;2023-03-14T07:36:49;97274.63;;;10.95;89.95
14253;BME280;7210;51.502;10.722;2023-03-14T07:39:16;97271.13;;;10.99;89.78
14253;BME280;7210;51.502;10.722;2023-03-14T07:41:51;97271.13;;;10.99;89.72
14253;BME280;7210;51.502;10.722;2023-03-14T07:44:39;97261.31;;;11.00;89.56
14253;BME280;7210;51.502;10.722;2023-03-14T07:47:08;97256.84;;;11.00;89.34
14253;BME280;7210;51.502;10.722;2023-03-14T07:49:35;97234.69;;;10.96;89.21
14253;BME280;7210;51.502;10.722;2023-03-14T07:52:03;97241.56;;;10.97;89.37
14253;BME280;7210;51.502;10.722;2023-03-14T07:54:30;97239.41;;;10.99;89.28
14253;BME280;7210;51.502;10.722;2023-03-14T07:56:58;97231.25;;;10.96;89.09
14253;BME280;7210;51.502;10.722;2023-03-14T07:59:26;97227.81;;;10.95;88.98
14253;BME280;7210;51.502;10.722;2023-03-14T08:01:53;97217.84;;;10.92;89.03
14253;BME280;7210;51.502;10.722;2023-03-14T08:04:22;97230.56;;;10.90;89.46
14253;BME280;7210;51.502;10.722;2023-03-14T08:06:49;97239.47;;;10.94;89.21
14253;BME280;7210;51.502;10.722;2023-03-14T08:09:16;97221.97;;;10.98;89.04
14253;BME280;7210;51.502;10.722;2023-03-14T08:11:44;97228.78;;;11.04;89.14
14253;BME280;7210;51.502;10.722;2023-03-14T08:14:11;97227.09;;;11.08;88.99
14253;BME280;7210;51.502;10.722;2023-03-14T08:16:38;97217.94;;;11.19;88.73
14253;BME280;7210;51.502;10.722;2023-03-14T08:19:05;97212.66;;;11.19;88.89
14253;BME280;7210;51.502;10.722;2023-03-14T08:21:33;97238.94;;;11.29;89.06
14253;BME280;7210;51.502;10.722;2023-03-14T08:24:01;97272.50;;;11.47;89.38
14253;BME280;7210;51.502;10.722;2023-03-14T08:26:28;97282.22;;;11.70;89.08
14253;BME280;7210;51.502;10.722;2023-03-14T08:28:55;97276.38;;;11.86;88.63
14253;BME280;7210;51.502;10.722;2023-03-14T08:31:22;97241.09;;;11.91;87.94
14253;BME280;7210;51.502;10.722;2023-03-14T08:33:49;97249.34;;;12.03;87.68
14253;BME280;7210;51.502;10.722;2023-03-14T08:36:18;97224.63;;;12.07;86.93
14253;BME280;7210;51.502;10.722;2023-03-14T08:38:47;97238.94;;;12.20;87.05
14253;BME280;7210;51.502;10.722;2023-03-14T08:41:14;97237.19;;;12.29;86.55
14253;BME280;7210;51.502;10.722;2023-03-14T08:43:41;97205.22;;;12.25;86.12
14253;BME280;7210;51.502;10.722;2023-03-14T08:46:08;97162.44;;;12.18;85.13
14253;BME280;7210;51.502;10.722;2023-03-14T08:48:35;97184.00;;;12.12;85.84
14253;BME280;7210;51.502;10.722;2023-03-14T08:51:07;97207.75;;;12.17;85.97
14253;BME280;7210;51.502;10.722;2023-03-14T08:53:36;97212.34;;;12.25;85.62
14253;BME280;7210;51.502;10.722;2023-03-14T08:56:06;97213.16;;;12.25;85.61
14253;BME280;7210;51.502;10.722;2023-03-14T08:58:35;97222.03;;;12.43;85.40
14253;BME280;7210;51.502;10.722;2023-03-14T09:01:04;97223.03;;;12.47;84.92
14253;BME280;7210;51.502;10.722;2023-03-14T09:03:31;97233.91;;;12.59;84.96
14253;BME280;7210;51.502;10.722;2023-03-14T09:06:03;97223.13;;;12.55;84.29
14253;BME280;7210;51.502;10.722;2023-03-14T09:08:31;97224.78;;;12.51;84.49
14253;BME280;7210;51.502;10.722;2023-03-14T09:10:59;97239.81;;;12.56;84.60
14253;BME280;7210;51.502;10.722;2023-03-14T09:13:27;97224.00;;;12.51;84.29
14253;BME280;7210;51.502;10.722;2023-03-14T09:15:56;97222.94;;;12.52;84.07
14253;BME280;7210;51.502;10.722;2023-03-14T09:18:23;97248.16;;;12.63;84.14
14253;BME280;7210;51.502;10.722;2023-03-14T09:20:50;97253.22;;;12.73;84.04
14253;BME280;7210;51.502;10.722;2023-03-14T09:23:17;97268.44;;;12.81;84.24
14253;BME280;7210;51.502;10.722;2023-03-14T09:25:44;97283.06;;;12.92;83.92
14253;BME280;7210;51.502;10.722;2023-03-14T09:28:12;97245.06;;;12.83;83.51
14253;BME280;7210;51.502;10.722;2023-03-14T09:30:40;97233.00;;;12.77;83.52
14253;BME280;7210;51.502;10.722;2023-03-14T09:33:07;97216.72;;;12.70;83.10
14253;BME280;7210;51.502;10.722;2023-03-14T09:35:34;97215.72;;;12.66;83.09
14253;BME280;7210;51.502;10.722;2023-03-14T09:38:02;97226.13;;;12.62;83.06
14253;BME280;7210;51.502;10.722;2023-03-14T09:40:34;97254.44;;;12.67;83.27
14253;BME280;7210;51.502;10.722;2023-03-14T09:43:02;97226.34;;;12.66;82.52
14253;BME280;7210;51.502;10.722;2023-03-14T09:45:34;97256.66;;;12.73;83.21
14253;BME280;7210;51.502;10.722;2023-03-14T09:48:05;97264.81;;;12.77;82.92
14253;BME280;7210;51.502;10.722;2023-03-14T09:50:39;97272.34;;;12.83;82.88
14253;BME280;7210;51.502;10.722;2023-03-14T09:53:15;97262.03;;;12.82;82.50
14253;BME280;7210;51.502;10.722;2023-03-14T09:55:45;97236.94;;;12.79;82.18
14253;BME280;7210;51.502;10.722;2023-03-14T09:58:19;97254.00;;;12.87;82.25
14253;BME280;7210;51.502;10.722;2023-03-14T10:00:55;97263.63;;;12.96;81.99
14253;BME280;7210;51.502;10.722;2023-03-14T10:03:31;97309.91;;;13.26;82.39
14253;BME280;7210;51.502;10.722;2023-03-14T10:05:59;97297.03;;;13.33;81.62
14253;BME280;7210;51.502;10.722;2023-03-14T10:08:26;97309.03;;;13.74;80.50
14253;BME280;7210;51.502;10.722;2023-03-14T10:10:53;97280.38;;;13.85;79.96
14253;BME280;7210;51.502;10.722;2023-03-14T10:13:24;97282.03;;;14.03;79.58
14253;BME280;7210;51.502;10.722;2023-03-14T10:15:54;97299.13;;;14.41;78.60
14253;BME280;7210;51.502;10.722;2023-03-14T10:18:23;97233.25;;;14.29;78.07
14253;BME280;7210;51.502;10.722;2023-03-14T10:21:05;97227.81;;;14.43;77.31
14253;BME280;7210;51.502;10.722;2023-03-14T10:23:33;97250.22;;;14.59;77.22
14253;BME280;7210;51.502;10.722;2023-03-14T10:26:08;97201.88;;;14.57;76.77
14253;BME280;7210;51.502;10.722;2023-03-14T10:28:41;97191.88;;;14.54;76.38
14253;BME280;7210;51.502;10.722;2023-03-14T10:31:13;97182.78;;;14.38;76.38
14253;BME280;7210;51.502;10.722;2023-03-14T10:33:40;97166.31;;;14.36;76.14
14253;BME280;7210;51.502;10.722;2023-03-14T10:36:20;97198.22;;;14.27;76.86
14253;BME280;7210;51.502;10.722;2023-03-14T10:38:49;97248.72;;;14.36;77.21
14253;BME280;7210;51.502;10.722;2023-03-14T10:41:19;97354.81;;;14.85;77.43
14253;BME280;7210;51.502;10.722;2023-03-14T10:43:54;97242.13;;;14.81;75.79
14253;BME280;7210;51.502;10.722;2023-03-14T10:46:30;97134.94;;;14.38;75.32
14253;BME280;7210;51.502;10.722;2023-03-14T10:49:27;97182.59;;;14.34;75.71
14253;BME280;7210;51.502;10.722;2023-03-14T10:52:15;97167.19;;;14.14;75.99
14253;BME280;7210;51.502;10.722;2023-03-14T10:54:54;97226.50;;;14.23;76.18
14253;BME280;7210;51.502;10.722;2023-03-14T10:57:24;97225.22;;;14.21;76.22
14253;BME280;7210;51.502;10.722;2023-03-14T10:59:53;97243.41;;;14.36;76.03
14253;BME280;7210;51.502;10.722;2023-03-14T11:02:40;97208.19;;;14.22;75.77
14253;BME280;7210;51.502;10.722;2023-03-14T11:05:28;97264.50;;;14.32;76.16
14253;BME280;7210;51.502;10.722;2023-03-14T11:08:02;97195.16;;;14.12;75.73
14253;BME280;7210;51.502;10.722;2023-03-14T11:10:35;97203.06;;;13.95;75.63
14253;BME280;7210;51.502;10.722;2023-03-14T11:13:17;97259.50;;;14.00;76.63
14253;BME280;7210;51.502;10.722;2023-03-14T11:15:57;97308.28;;;14.26;76.52
14253;BME280;7210;51.502;10.722;2023-03-14T11:18:57;97329.75;;;14.38;76.85
14253;BME280;7210;51.502;10.722;2023-03-14T11:21:32;97289.34;;;14.28;76.53
14253;BME280;7210;51.502;10.722;2023-03-14T11:24:26;97280.75;;;14.22;76.59
14253;BME280;7210;51.502;10.722;2023-03-14T11:27:03;97263.38;;;13.94;76.92
14253;BME280;7210;51.502;10.722;2023-03-14T11:29:41;97290.50;;;13.83;77.67
14253;BME280;7210;51.502;10.722;2023-03-14T11:32:15;97301.72;;;13.80;77.89
14253;BME280;7210;51.502;10.722;2023-03-14T11:34:51;97278.34;;;13.60;77.98
14253;BME280;7210;51.502;10.722;2023-03-14T11:37:25;97354.78;;;13.71;78.90
14253;BME280;7210;51.502;10.722;2023-03-14T11:40:05;97365.47;;;13.80;79.00
14253;BME280;7210;51.502;10.722;2023-03-14T11:42:35;97435.88;;;14.13;79.59
14253;BME280;7210;51.502;10.722;2023-03-14T11:45:14;97427.94;;;14.35;78.65
14253;BME280;7210;51.502;10.722;2023-03-14T11:47:45;97437.34;;;14.63;78.13
14253;BME280;7210;51.502;10.722;2023-03-14T11:50:24;97427.88;;;14.87;77.37
14253;BME280;7210;51.502;10.722;2023-03-14T11:52:57;97376.56;;;14.87;76.86
14253;BME280;7210;51.502;10.722;2023-03-14T11:55:31;97365.63;;;14.97;76.43
14253;BME280;7210;51.502;10.722;2023-03-14T11:58:03;97296.09;;;14.73;75.91
14253;BME280;7210;51.502;10.722;2023-03-14T12:00:39;97318.63;;;14.84;76.01
14253;BME280;7210;51.502;10.722;2023-03-14T12:03:17;97405.78;;;15.25;76.17
14253;BME280;7210;51.502;10.722;2023-03-14T12:06:01;97332.06;;;15.34;74.81
14253;BME280;7210;51.502;10.722;2023-03-14T12:08:50;97211.94;;;14.94;74.59
14253;BME280;7210;51.502;10.722;2023-03-14T12:11:33;97364.28;;;15.08;76.50
14253;BME280;7210;51.502;10.722;2023-03-14T12:14:03;97421.69;;;15.56;76.04
14253;BME280;7210;51.502;10.722;2023-03-14T12:16:46;97312.81;;;15.54;74.35
14253;BME280;7210;51.502;10.722;2023-03-14T12:19:34;97229.94;;;15.47;73.15
14253;BME280;7210;51.502;10.722;2023-03-14T12:22:27;97294.31;;;15.66;73.45
14253;BME280;7210;51.502;10.722;2023-03-14T12:25:03;97306.53;;;15.84;73.64
14253;BME280;7210;51.502;10.722;2023-03-14T12:28:03;97217.19;;;15.78;72.67
14253;BME280;7210;51.502;10.722;2023-03-14T12:30:34;97196.06;;;15.65;72.47
14253;BME280;7210;51.502;10.722;2023-03-14T12:33:30;97146.94;;;15.37;72.42
14253;BME280;7210;51.502;10.722;2023-03-14T12:36:21;97124.41;;;15.18;72.56
14253;BME280;7210;51.502;10.722;2023-03-14T12:39:20;97140.56;;;15.04;72.84
14253;BME280;7210;51.502;10.722;2023-03-14T12:41:52;97218.34;;;15.01;74.22
14253;BME280;7210;51.502;10.722;2023-03-14T12:44:44;97140.25;;;14.72;73.77
14253;BME280;7210;51.502;10.722;2023-03-14T12:48:09;97125.22;;;14.42;74.29
14253;BME280;7210;51.502;10.722;2023-03-14T12:50:46;97177.75;;;14.45;74.66
14253;BME280;7210;51.502;10.722;2023-03-14T12:57:04;97240.97;;;14.48;75.47
14253;BME280;7210;51.502;10.722;2023-03-14T12:59:35;97245.31;;;14.44;75.32
14253;BME280;7210;51.502;10.722;2023-03-14T13:02:24;97200.38;;;14.25;75.13
14253;BME280;7210;51.502;10.722;2023-03-14T13:05:02;97224.84;;;14.14;75.71
14253;BME280;7210;51.502;10.722;2023-03-14T13:08:05;97248.31;;;13.81;76.63
14253;BME280;7210;51.502;10.722;2023-03-14T13:10:43;97345.13;;;13.75;78.48
14253;BME280;7210;51.502;10.722;2023-03-14T13:13:20;97406.56;;;13.60;80.44
14253;BME280;7210;51.502;10.722;2023-03-14T13:15:49;97426.28;;;13.19;82.52
14253;BME280;7210;51.502;10.722;2023-03-14T13:18:30;97463.19;;;12.75;84.67
14253;BME280;7210;51.502;10.722;2023-03-14T13:21:05;97486.06;;;12.39;86.58
14253;BME280;7210;51.502;10.722;2023-03-14T13:23:36;97581.63;;;12.29;88.71
14253;BME280;7210;51.502;10.722;2023-03-14T13:26:10;97503.78;;;11.46;88.49
14253;BME280;7210;51.502;10.722;2023-03-14T13:28:40;97436.47;;;10.63;88.45
14253;BME280;7210;51.502;10.722;2023-03-14T13:31:24;97470.78;;;10.06;90.25
14253;BME280;7210;51.502;10.722;2023-03-14T13:34:04;97499.81;;;9.63;91.50
14253;BME280;7210;51.502;10.722;2023-03-14T13:36:32;97513.41;;;9.21;93.02
14253;BME280;7210;51.502;10.722;2023-03-14T13:39:01;97567.50;;;9.09;94.66
14253;BME280;7210;51.502;10.722;2023-03-14T13:41:30;97590.41;;;8.93;95.45